Time;durP1;ratioP1;P1;durP2;ratioP2;P2;SDS_P1;SDS_P2;PMS_P1;PMS_P2;Temp;Humidity;BMP_temperature;BMP_pressure;BME280_temperature;BME280_humidity;BME280_pressure;Samples;Min_cycle;Max_cycle;Signal;HPM_P1;HPM_P2
2021/06/28 00:01:19;;;;;;;0.70;0.60;;;18.40;99.90;;;-143.50;100.00;58913.53;4993787;28;20457;-71
2021/06/28 00:03:47;;;;;;;0.70;0.60;;;18.30;99.90;;;-143.50;100.00;58913.53;4993348;28;20830;-71
2021/06/28 00:06:15;;;;;;;0.77;0.70;;;18.20;99.90;;;-143.50;100.00;58913.53;4993896;28;20432;-71
2021/06/28 00:08:43;;;;;;;0.70;0.60;;;18.20;99.90;;;-143.50;100.00;58913.53;4993923;28;20557;-71
2021/06/28 00:11:11;;;;;;;0.70;0.70;;;18.20;99.90;;;-143.50;100.00;58913.53;4994248;28;20477;-71
2021/06/28 00:13:43;;;;;;;1.37;1.27;;;18.20;99.90;;;-143.50;100.00;58913.53;4993175;28;20450;-71
2021/06/28 00:16:13;;;;;;;0.80;0.70;;;18.20;99.90;;;-143.50;100.00;58913.53;4993803;28;20418;-71
2021/06/28 00:18:43;;;;;;;0.70;0.70;;;18.20;99.90;;;-143.50;100.00;58913.53;4991152;28;20437;-70
2021/06/28 00:21:10;;;;;;;0.70;0.60;;;18.20;99.90;;;-143.50;100.00;58913.53;4991692;28;20436;-71
2021/06/28 00:23:39;;;;;;;0.70;0.60;;;18.20;99.90;;;-143.50;100.00;58913.53;4991924;28;20494;-71
2021/06/28 00:26:06;;;;;;;0.80;0.70;;;18.10;99.90;;;-143.50;100.00;58913.53;4993708;28;20427;-71
2021/06/28 00:28:34;;;;;;;0.70;0.63;;;18.10;99.90;;;-143.50;100.00;58913.53;4993036;28;20419;-71
2021/06/28 00:31:02;;;;;;;0.70;0.67;;;18.00;99.90;;;-143.50;100.00;58913.53;4991965;28;20470;-71
2021/06/28 00:33:31;;;;;;;0.80;0.70;;;18.00;99.90;;;-143.50;100.00;58913.53;4991938;28;20446;-71
2021/06/28 00:35:59;;;;;;;0.80;0.70;;;18.00;99.90;;;-143.50;100.00;58913.53;4993264;28;20434;-71
2021/06/28 00:38:27;;;;;;;0.80;0.70;;;17.90;99.90;;;-143.50;100.00;58913.53;4993221;28;20454;-71
2021/06/28 00:40:55;;;;;;;0.70;0.60;;;17.90;99.90;;;-143.50;100.00;58913.53;4992076;28;20481;-71
2021/06/28 00:43:22;;;;;;;0.80;0.70;;;17.90;99.90;;;-143.50;100.00;58913.53;5008678;28;20436;-71
2021/06/28 00:45:50;;;;;;;0.80;0.70;;;17.90;99.90;;;-143.50;100.00;58913.53;4993718;28;20957;-71
2021/06/28 00:48:18;;;;;;;0.70;0.60;;;17.80;99.90;;;-143.50;100.00;58913.53;4993753;28;20410;-71
2021/06/28 00:50:48;;;;;;;0.70;0.60;;;17.80;99.90;;;-143.50;100.00;58913.53;4990780;28;20480;-71
2021/06/28 00:53:20;;;;;;;0.70;0.60;;;17.80;99.90;;;-143.50;100.00;58913.53;4993352;28;20460;-71
2021/06/28 00:55:49;;;;;;;0.80;0.70;;;17.70;99.90;;;-143.50;100.00;58913.53;4993511;28;20477;-71
2021/06/28 00:58:17;;;;;;;0.70;0.70;;;17.60;99.90;;;-143.50;100.00;58913.53;4991684;28;20442;-71
2021/06/28 01:00:46;;;;;;;0.80;0.70;;;17.60;99.90;;;-143.50;100.00;58913.53;4993364;28;21057;-71
2021/06/28 01:03:14;;;;;;;0.70;0.60;;;17.60;99.90;;;-143.50;100.00;58913.53;4993208;28;20445;-71
2021/06/28 01:05:42;;;;;;;0.70;0.70;;;17.60;99.90;;;-143.50;100.00;58913.53;4993430;28;20429;-71
2021/06/28 01:08:11;;;;;;;0.70;0.70;;;17.60;99.90;;;-143.50;100.00;58913.53;4992313;28;20541;-71
2021/06/28 01:10:40;;;;;;;0.80;0.70;;;17.60;99.90;;;-143.50;100.00;58913.53;4992616;28;20528;-71
2021/06/28 01:13:08;;;;;;;0.70;0.60;;;17.60;99.90;;;-143.50;100.00;58913.53;4992191;28;20540;-71
2021/06/28 01:15:36;;;;;;;0.70;0.70;;;17.50;99.90;;;-143.50;100.00;58913.53;4993521;28;20853;-71
2021/06/28 01:18:06;;;;;;;0.73;0.70;;;17.50;99.90;;;-143.50;100.00;58913.53;4990654;28;20966;-70
2021/06/28 01:20:36;;;;;;;0.80;0.70;;;17.50;99.90;;;-143.50;100.00;58913.53;4992883;28;20451;-71
2021/06/28 01:23:18;;;;;;;0.70;0.60;;;17.50;99.90;;;-143.50;100.00;58913.53;4992284;28;20456;-71
2021/06/28 01:25:48;;;;;;;0.70;0.60;;;17.40;99.90;;;-143.50;100.00;58913.53;4993232;28;20897;-71
2021/06/28 01:28:16;;;;;;;0.70;0.60;;;17.40;99.90;;;-143.50;100.00;58913.53;4992640;28;20508;-70
2021/06/28 01:30:45;;;;;;;0.70;0.60;;;17.30;99.90;;;-143.50;100.00;58913.53;4994804;28;20469;-71
2021/06/28 01:33:12;;;;;;;0.70;0.67;;;17.30;99.90;;;-143.50;100.00;58913.53;4995290;28;20471;-71
2021/06/28 01:35:46;;;;;;;0.70;0.60;;;17.30;99.90;;;-143.50;100.00;58913.53;4996122;28;20417;-71
2021/06/28 01:38:16;;;;;;;0.70;0.60;;;17.30;99.90;;;-143.50;100.00;58913.53;4996780;28;20488;-71
2021/06/28 01:40:45;;;;;;;0.70;0.60;;;17.30;99.90;;;-143.50;100.00;58913.53;4996804;28;20413;-71
2021/06/28 01:43:13;;;;;;;0.70;0.60;;;17.30;99.90;;;-143.50;100.00;58913.53;4995637;28;20927;-71
2021/06/28 01:45:42;;;;;;;1.00;0.90;;;17.30;99.90;;;-143.50;100.00;58913.53;4995675;28;20523;-71
2021/06/28 01:48:10;;;;;;;0.70;0.60;;;17.30;99.90;;;-143.50;100.00;58913.53;4996240;28;20429;-71
2021/06/28 01:50:39;;;;;;;0.70;0.70;;;17.30;99.90;;;-143.50;100.00;58913.53;4996098;28;20465;-71
2021/06/28 01:53:08;;;;;;;0.70;0.70;;;17.30;99.90;;;-143.50;100.00;58913.53;4996377;28;20445;-71
2021/06/28 01:55:38;;;;;;;0.70;0.60;;;17.30;99.90;;;-143.50;100.00;58913.53;4996584;28;20871;-71
2021/06/28 01:58:09;;;;;;;0.70;0.60;;;17.30;99.90;;;-143.50;100.00;58913.53;5027938;28;20435;-71
2021/06/28 02:00:39;;;;;;;0.70;0.60;;;17.20;99.90;;;-143.50;100.00;58913.53;4994763;28;20526;-71
2021/06/28 02:03:11;;;;;;;0.80;0.70;;;17.20;99.90;;;-143.50;100.00;58913.53;4994913;28;20969;-71
2021/06/28 02:05:42;;;;;;;0.70;0.60;;;17.20;99.90;;;-143.50;100.00;58913.53;4995288;28;20427;-71
2021/06/28 02:08:11;;;;;;;0.70;0.70;;;17.20;99.90;;;-143.50;100.00;58913.53;4994871;28;20457;-71
2021/06/28 02:10:45;;;;;;;0.70;0.60;;;17.20;99.90;;;-143.50;100.00;58913.53;4995896;28;20832;-71
2021/06/28 02:13:13;;;;;;;0.70;0.60;;;17.20;99.90;;;-143.50;100.00;58913.53;4996040;28;20462;-71
2021/06/28 02:15:40;;;;;;;0.80;0.70;;;17.20;99.90;;;-143.50;100.00;58913.53;4993482;28;20436;-71
2021/06/28 02:18:09;;;;;;;0.70;0.70;;;17.20;99.90;;;-143.50;100.00;58913.53;4995395;28;20442;-71
2021/06/28 02:20:37;;;;;;;0.70;0.60;;;17.10;99.90;;;-143.50;100.00;58913.53;4995278;28;20467;-71
2021/06/28 02:23:23;;;;;;;0.73;0.70;;;17.10;99.90;;;-143.50;100.00;58913.53;4995195;28;20452;-71
2021/06/28 02:25:56;;;;;;;0.70;0.60;;;17.10;99.90;;;-143.50;100.00;58913.53;4994066;28;20528;-71
2021/06/28 02:28:24;;;;;;;0.70;0.60;;;17.20;99.90;;;-143.50;100.00;58913.53;4995761;28;20441;-71
2021/06/28 02:30:54;;;;;;;0.70;0.63;;;17.20;99.90;;;-143.50;100.00;58913.53;4995668;28;20478;-71
2021/06/28 02:33:22;;;;;;;0.70;0.60;;;17.10;99.90;;;-143.50;100.00;58913.53;4995478;28;20521;-71
2021/06/28 02:35:51;;;;;;;0.70;0.60;;;17.10;99.90;;;-143.50;100.00;58913.53;4995512;28;20410;-70
2021/06/28 02:38:18;;;;;;;0.70;0.60;;;17.10;99.90;;;-143.50;100.00;58913.53;4992922;28;20948;-71
2021/06/28 02:40:47;;;;;;;0.80;0.70;;;17.10;99.90;;;-143.50;100.00;58913.53;4994073;28;20426;-71
2021/06/28 02:43:17;;;;;;;0.70;0.60;;;17.10;99.90;;;-143.50;100.00;58913.53;4995315;28;20443;-71
2021/06/28 02:45:45;;;;;;;0.70;0.70;;;17.10;99.90;;;-143.50;100.00;58913.53;4995686;28;20444;-71
2021/06/28 02:48:13;;;;;;;0.70;0.70;;;17.00;99.90;;;-143.50;100.00;58913.53;4995230;28;20888;-71
2021/06/28 02:50:42;;;;;;;0.70;0.60;;;17.00;99.90;;;-143.50;100.00;58913.53;4994858;28;20487;-71
2021/06/28 02:53:10;;;;;;;0.70;0.70;;;17.10;99.90;;;-143.50;100.00;58913.53;4995784;28;20441;-71
2021/06/28 02:55:37;;;;;;;0.70;0.70;;;17.00;99.90;;;-143.50;100.00;58913.53;4993668;28;20434;-72
2021/06/28 02:58:06;;;;;;;0.70;0.60;;;16.90;99.90;;;-143.50;100.00;58913.53;4994592;28;20410;-71
2021/06/28 03:00:35;;;;;;;0.80;0.70;;;16.90;99.90;;;-143.50;100.00;58913.53;4995321;28;20443;-71
2021/06/28 03:03:02;;;;;;;0.70;0.60;;;16.80;99.90;;;-143.50;100.00;58913.53;4995404;28;20759;-71
2021/06/28 03:05:30;;;;;;;0.70;0.60;;;16.80;99.90;;;-143.50;100.00;58913.53;4995100;28;20483;-71
2021/06/28 03:07:59;;;;;;;0.70;0.63;;;16.80;99.90;;;-143.50;100.00;58913.53;4994273;28;21030;-71
2021/06/28 03:10:26;;;;;;;0.70;0.60;;;16.70;99.90;;;-143.50;100.00;58913.53;4995105;28;20514;-71
2021/06/28 03:12:53;;;;;;;0.80;0.70;;;16.70;99.90;;;-143.50;100.00;58913.53;4994474;28;20475;-71
2021/06/28 03:15:22;;;;;;;0.70;0.60;;;16.70;99.90;;;-143.50;100.00;58913.53;4994080;28;20440;-71
2021/06/28 03:17:51;;;;;;;0.80;0.70;;;16.70;99.90;;;-143.50;100.00;58913.53;4994849;28;20407;-72
2021/06/28 03:20:18;;;;;;;0.70;0.60;;;16.70;99.90;;;-143.50;100.00;58913.53;4994444;28;20453;-71
2021/06/28 03:22:47;;;;;;;0.70;0.60;;;16.70;99.90;;;-143.50;100.00;58913.53;4994836;28;20484;-71
2021/06/28 03:25:17;;;;;;;0.70;0.60;;;16.70;99.90;;;-143.50;100.00;58913.53;4994114;28;20511;-71
2021/06/28 03:27:45;;;;;;;0.70;0.70;;;16.70;99.90;;;-143.50;100.00;58913.53;4994631;28;20463;-72
2021/06/28 03:30:16;;;;;;;0.70;0.67;;;16.60;99.90;;;-143.50;100.00;58913.53;4995230;28;20457;-72
2021/06/28 03:32:45;;;;;;;0.80;0.70;;;16.60;99.90;;;-143.50;100.00;58913.53;4993471;28;20871;-72
2021/06/28 03:35:14;;;;;;;0.80;0.70;;;16.60;99.90;;;-143.50;100.00;58913.53;4993235;28;20500;-71
2021/06/28 03:37:43;;;;;;;0.70;0.70;;;16.60;99.90;;;-143.50;100.00;58913.53;4994730;28;20516;-71
2021/06/28 03:40:13;;;;;;;0.70;0.70;;;16.60;99.90;;;-143.50;100.00;58913.53;5009346;28;20954;-71
2021/06/28 03:42:41;;;;;;;0.70;0.70;;;16.60;99.90;;;-143.50;100.00;58913.53;4989144;28;20445;-71
2021/06/28 03:45:12;;;;;;;0.70;0.60;;;16.60;99.90;;;-143.50;100.00;58913.53;4975197;28;20974;-71
2021/06/28 03:47:41;;;;;;;0.70;0.63;;;16.60;99.90;;;-143.50;100.00;58913.53;4976436;28;20414;-72
2021/06/28 03:50:12;;;;;;;1.20;1.10;;;16.60;99.90;;;-143.50;100.00;58913.53;4989866;28;20464;-71
2021/06/28 03:52:41;;;;;;;0.80;0.70;;;16.60;99.90;;;-143.50;100.00;58913.53;4992853;28;20852;-71
2021/06/28 03:55:10;;;;;;;0.70;0.63;;;16.60;99.90;;;-143.50;100.00;58913.53;4994885;28;21006;-72
2021/06/28 03:57:38;;;;;;;0.70;0.60;;;16.60;99.90;;;-143.50;100.00;58913.53;4994214;28;20478;-72
2021/06/28 04:00:11;;;;;;;0.70;0.70;;;16.70;99.90;;;-143.50;100.00;58913.53;4993638;28;20441;-72
2021/06/28 04:02:43;;;;;;;0.73;0.70;;;16.60;99.90;;;-143.50;100.00;58913.53;4993934;28;20487;-71
2021/06/28 04:05:15;;;;;;;0.70;0.60;;;16.70;99.90;;;-143.50;100.00;58913.53;5008757;28;20431;-71
2021/06/28 04:07:44;;;;;;;0.70;0.60;;;16.70;99.90;;;-143.50;100.00;58913.53;4994278;28;20877;-71
2021/06/28 04:10:14;;;;;;;0.70;0.60;;;16.70;99.90;;;-143.50;100.00;58913.53;4994022;28;20465;-71
2021/06/28 04:12:42;;;;;;;0.70;0.60;;;16.70;99.90;;;-143.50;100.00;58913.53;5018331;28;20467;-71
2021/06/28 04:15:12;;;;;;;0.80;0.70;;;16.70;99.90;;;-143.50;100.00;58913.53;4992890;28;20428;-71
2021/06/28 04:17:41;;;;;;;0.70;0.60;;;16.80;99.90;;;-143.50;100.00;58913.53;4993571;28;20472;-71
2021/06/28 04:20:12;;;;;;;0.70;0.70;;;16.80;99.90;;;-143.50;100.00;58913.53;4991362;28;20482;-71
2021/06/28 04:22:41;;;;;;;0.70;0.70;;;16.80;99.90;;;-143.50;100.00;58913.53;4973177;28;20945;-71
2021/06/28 04:25:17;;;;;;;0.70;0.60;;;16.90;99.90;;;-143.50;100.00;58913.53;4985340;28;20530;-71
2021/06/28 04:27:45;;;;;;;0.70;0.60;;;16.90;99.90;;;-143.50;100.00;58913.53;4992226;28;20436;-71
2021/06/28 04:30:16;;;;;;;0.70;0.60;;;16.90;99.90;;;-143.50;100.00;58913.53;4992686;28;20548;-72
2021/06/28 04:32:45;;;;;;;0.70;0.70;;;17.00;99.90;;;-143.50;100.00;58913.53;4990337;28;20770;-72
2021/06/28 04:35:16;;;;;;;0.70;0.60;;;17.10;99.90;;;-143.50;100.00;58913.53;4990358;28;20526;-71
2021/06/28 04:37:44;;;;;;;0.73;0.70;;;17.20;99.90;;;-143.50;100.00;58913.53;4990890;28;20541;-72
2021/06/28 04:40:16;;;;;;;0.70;0.60;;;17.30;99.90;;;-143.50;100.00;58913.53;4992727;28;20431;-71
2021/06/28 04:42:46;;;;;;;0.80;0.70;;;17.40;99.90;;;-143.50;100.00;58913.53;4993675;28;20436;-72
2021/06/28 04:45:15;;;;;;;0.70;0.67;;;17.50;99.90;;;-143.50;100.00;58913.53;4976720;28;20421;-72
2021/06/28 04:47:43;;;;;;;0.70;0.70;;;17.60;99.90;;;-143.50;100.00;58913.53;4994087;28;20437;-71
2021/06/28 04:50:13;;;;;;;0.70;0.70;;;17.70;99.90;;;-143.50;100.00;58913.53;4992820;28;20477;-72
2021/06/28 04:52:42;;;;;;;0.70;0.60;;;17.80;99.90;;;-143.50;100.00;58913.53;4992675;28;20518;-71
2021/06/28 04:55:14;;;;;;;0.70;0.70;;;17.90;99.90;;;-143.50;100.00;58913.53;4993595;28;20445;-71
2021/06/28 04:57:44;;;;;;;0.70;0.60;;;17.90;99.90;;;-143.50;100.00;58913.53;4991926;28;20481;-71
2021/06/28 05:00:15;;;;;;;0.70;0.60;;;18.00;99.90;;;-143.50;100.00;58913.53;4993513;28;20927;-71
2021/06/28 05:02:44;;;;;;;0.70;0.70;;;18.10;99.90;;;-143.50;100.00;58913.53;4993200;28;20556;-71
2021/06/28 05:05:13;;;;;;;0.70;0.60;;;18.20;99.90;;;-143.50;100.00;58913.53;4995434;28;20429;-71
2021/06/28 05:07:42;;;;;;;0.70;0.67;;;18.30;99.90;;;-143.50;100.00;58913.53;5009934;28;20487;-71
2021/06/28 05:10:13;;;;;;;0.70;0.60;;;18.40;99.90;;;-143.50;100.00;58913.53;4995030;28;20528;-71
2021/06/28 05:12:43;;;;;;;0.80;0.70;;;18.50;99.90;;;-143.50;100.00;58913.53;4997252;28;20445;-71
2021/06/28 05:15:13;;;;;;;0.70;0.70;;;18.50;99.90;;;-143.50;100.00;58913.53;4996070;28;20442;-71
2021/06/28 05:17:43;;;;;;;0.70;0.70;;;18.60;99.90;;;-143.50;100.00;58913.53;4996458;28;20908;-71
2021/06/28 05:20:13;;;;;;;0.70;0.70;;;18.60;99.90;;;-143.50;100.00;58913.53;4995654;28;20416;-72
2021/06/28 05:22:41;;;;;;;0.70;0.70;;;18.60;99.90;;;-143.50;100.00;58913.53;4997071;28;20438;-71
2021/06/28 05:25:11;;;;;;;0.70;0.70;;;18.70;99.90;;;-143.50;100.00;58913.53;4995857;28;20462;-72
2021/06/28 05:27:41;;;;;;;0.70;0.60;;;18.70;99.90;;;-143.50;100.00;58913.53;4996599;28;20512;-72
2021/06/28 05:30:13;;;;;;;0.77;0.70;;;18.80;99.90;;;-143.50;100.00;58913.53;4996565;28;20418;-71
2021/06/28 05:32:41;;;;;;;0.70;0.60;;;18.80;99.90;;;-143.50;100.00;58913.53;4997172;28;20477;-71
2021/06/28 05:35:10;;;;;;;0.90;0.90;;;18.90;99.90;;;-143.50;100.00;58913.53;4996596;28;20438;-72
2021/06/28 05:37:39;;;;;;;0.70;0.63;;;18.80;99.90;;;-143.50;100.00;58913.53;4996271;28;20527;-71
2021/06/28 05:40:09;;;;;;;0.70;0.60;;;18.90;99.90;;;-143.50;100.00;58913.53;5012061;28;20455;-72
2021/06/28 05:42:39;;;;;;;0.70;0.70;;;19.10;99.90;;;-143.50;100.00;58913.53;4995524;28;20493;-73
2021/06/28 05:45:10;;;;;;;1.50;1.40;;;19.10;99.90;;;-143.50;100.00;58913.53;4996382;28;20911;-72
2021/06/28 05:47:43;;;;;;;0.70;0.60;;;19.30;99.90;;;-143.50;100.00;58913.53;4996691;28;20989;-72
2021/06/28 05:50:17;;;;;;;0.70;0.60;;;19.30;99.90;;;-143.50;100.00;58913.53;4995594;28;20423;-72
2021/06/28 05:52:46;;;;;;;0.70;0.60;;;19.50;99.90;;;-143.50;100.00;58913.53;4995381;28;20473;-71
2021/06/28 05:55:14;;;;;;;0.80;0.70;;;19.70;99.90;;;-143.50;100.00;58913.53;4996037;28;20481;-71
2021/06/28 05:57:41;;;;;;;0.70;0.60;;;19.80;99.90;;;-143.50;100.00;58913.53;4996612;28;20446;-72
2021/06/28 06:00:13;;;;;;;0.70;0.70;;;19.90;99.90;;;-143.50;100.00;58913.53;4995018;28;20529;-71
2021/06/28 06:02:42;;;;;;;0.70;0.60;;;20.10;99.90;;;-143.50;100.00;58913.53;4994785;28;20385;-72
2021/06/28 06:05:11;;;;;;;0.70;0.70;;;20.20;99.90;;;-143.50;100.00;58913.53;4994837;28;20419;-71
2021/06/28 06:07:39;;;;;;;0.70;0.70;;;20.40;99.90;;;-143.50;100.00;58913.53;4992184;28;20443;-72
2021/06/28 06:10:11;;;;;;;0.70;0.70;;;20.30;99.90;;;-143.50;100.00;58913.53;4996090;28;20950;-71
2021/06/28 06:12:39;;;;;;;0.70;0.70;;;20.50;99.90;;;-143.50;100.00;58913.53;4995626;28;20458;-71
2021/06/28 06:15:14;;;;;;;0.70;0.70;;;20.50;99.90;;;-143.50;100.00;58913.53;4996040;28;20809;-72
2021/06/28 06:17:43;;;;;;;0.70;0.70;;;20.70;99.90;;;-143.50;100.00;58913.53;4994849;28;20454;-72
2021/06/28 06:20:12;;;;;;;0.73;0.70;;;20.80;99.90;;;-143.50;100.00;58913.53;4995807;28;20430;-72
2021/06/28 06:22:40;;;;;;;0.70;0.60;;;20.80;99.90;;;-143.50;100.00;58913.53;4995555;28;20434;-72
2021/06/28 06:25:09;;;;;;;1.17;1.07;;;21.00;99.90;;;-143.50;100.00;58913.53;4995724;28;20837;-72
2021/06/28 06:27:36;;;;;;;0.80;0.70;;;20.90;99.90;;;-143.50;100.00;58913.53;4995652;28;20935;-72
2021/06/28 06:30:08;;;;;;;0.70;0.60;;;21.00;99.90;;;-143.50;100.00;58913.53;4996024;28;20405;-72
2021/06/28 06:32:52;;;;;;;0.70;0.60;;;21.00;99.90;;;-143.50;100.00;58913.53;4995527;28;20774;-72
2021/06/28 06:35:20;;;;;;;0.70;0.60;;;21.00;99.90;;;-143.50;100.00;58913.53;4994995;28;20431;-72
2021/06/28 06:37:50;;;;;;;0.80;0.73;;;21.00;99.90;;;-143.50;100.00;58913.53;4995536;28;20487;-72
2021/06/28 06:40:17;;;;;;;0.70;0.63;;;21.00;99.90;;;-143.50;100.00;58913.53;4994999;28;20921;-72
2021/06/28 06:42:46;;;;;;;0.70;0.70;;;21.00;99.90;;;-143.50;100.00;58913.53;4995039;28;20466;-72
2021/06/28 06:45:15;;;;;;;0.70;0.70;;;21.00;99.90;;;-143.50;100.00;58913.53;4995699;28;20450;-72
2021/06/28 06:47:42;;;;;;;0.80;0.70;;;21.00;99.90;;;-143.50;100.00;58913.53;4995631;28;20872;-72
2021/06/28 06:50:13;;;;;;;0.70;0.60;;;21.10;99.90;;;-143.50;100.00;58913.53;4993236;28;20438;-72
2021/06/28 06:52:41;;;;;;;0.70;0.60;;;21.20;99.90;;;-143.50;100.00;58913.53;4995337;28;20462;-72
2021/06/28 06:55:11;;;;;;;0.80;0.70;;;21.20;99.90;;;-143.50;100.00;58913.53;4994706;28;20907;-71
2021/06/28 06:57:40;;;;;;;0.70;0.60;;;21.20;99.90;;;-143.50;100.00;58913.53;4995671;28;20811;-72
2021/06/28 07:00:13;;;;;;;0.70;0.60;;;21.20;99.90;;;-143.50;100.00;58913.53;4993259;28;20485;-72
2021/06/28 07:02:41;;;;;;;0.70;0.60;;;21.20;99.90;;;-143.50;100.00;58913.53;4995107;28;20423;-72
2021/06/28 07:05:12;;;;;;;0.70;0.70;;;21.10;99.90;;;-143.50;100.00;58913.53;4994153;28;20446;-73
2021/06/28 07:07:41;;;;;;;0.80;0.80;;;21.10;99.90;;;-143.50;100.00;58913.53;4995139;28;20896;-72
2021/06/28 07:10:11;;;;;;;1.37;1.27;;;21.20;99.90;;;-143.50;100.00;58913.53;4995467;28;20393;-72
2021/06/28 07:12:39;;;;;;;0.70;0.60;;;21.20;99.90;;;-143.50;100.00;58913.53;4994952;28;20803;-72
2021/06/28 07:15:10;;;;;;;0.70;0.60;;;21.20;99.90;;;-143.50;100.00;58913.53;4994682;28;20790;-72
2021/06/28 07:17:37;;;;;;;0.70;0.60;;;21.50;99.90;;;-143.50;100.00;58913.53;4994503;28;20422;-72
2021/06/28 07:20:08;;;;;;;1.13;1.03;;;21.60;99.90;;;-143.50;100.00;58913.53;4994240;28;20430;-72
2021/06/28 07:22:37;;;;;;;0.70;0.60;;;21.80;99.90;;;-143.50;100.00;58913.53;4995126;28;20488;-71
2021/06/28 07:25:07;;;;;;;0.80;0.70;;;22.10;99.90;;;-143.50;100.00;58913.53;4994035;28;20446;-72
2021/06/28 07:27:35;;;;;;;0.70;0.60;;;22.40;99.90;;;-143.50;100.00;58913.53;4994477;28;20746;-72
2021/06/28 07:30:07;;;;;;;0.80;0.70;;;22.70;99.90;;;-143.50;100.00;58913.53;4995015;28;20935;-73
2021/06/28 07:32:35;;;;;;;0.70;0.60;;;22.90;99.90;;;-143.50;100.00;58913.53;4994462;28;20421;-71
2021/06/28 07:35:04;;;;;;;0.70;0.60;;;22.90;99.90;;;-143.50;100.00;58913.53;4992896;28;20427;-72
2021/06/28 07:37:32;;;;;;;0.70;0.60;;;22.70;99.90;;;-143.50;100.00;58913.53;4994026;28;20417;-72
2021/06/28 07:40:01;;;;;;;0.70;0.60;;;22.70;99.90;;;-143.50;100.00;58913.53;4994698;28;21010;-72
2021/06/28 07:42:33;;;;;;;0.80;0.60;;;22.60;99.90;;;-143.50;100.00;58913.53;4994510;28;20439;-72
2021/06/28 07:45:01;;;;;;;0.73;0.60;;;22.70;99.90;;;-143.50;100.00;58913.53;4994742;28;20438;-72
2021/06/28 07:47:30;;;;;;;0.70;0.63;;;23.00;99.90;;;-143.50;100.00;58913.53;4992752;28;20435;-73
2021/06/28 07:49:58;;;;;;;0.70;0.63;;;23.10;99.90;;;-143.50;100.00;58913.53;4994229;28;20426;-72
2021/06/28 07:52:26;;;;;;;0.70;0.60;;;23.10;99.90;;;-143.50;100.00;58913.53;4992199;28;20452;-73
2021/06/28 07:54:54;;;;;;;0.80;0.77;;;23.20;99.90;;;-143.50;100.00;58913.53;4993868;28;20792;-72
2021/06/28 07:57:24;;;;;;;0.70;0.60;;;23.30;99.90;;;-143.50;100.00;58913.53;5009749;28;20460;-73
2021/06/28 07:59:51;;;;;;;0.80;0.80;;;23.50;99.90;;;-143.50;100.00;58913.53;4994119;28;20389;-72
2021/06/28 08:02:19;;;;;;;0.80;0.70;;;23.70;99.90;;;-143.50;100.00;58913.53;4990593;28;20425;-72
2021/06/28 08:04:47;;;;;;;0.70;0.60;;;23.90;99.90;;;-143.50;100.00;58913.53;4986092;28;20405;-73
2021/06/28 08:07:16;;;;;;;0.70;0.60;;;24.10;99.90;;;-143.50;100.00;58913.53;4993924;28;20438;-72
2021/06/28 08:10:04;;;;;;;0.70;0.60;;;24.40;99.90;;;-143.50;100.00;58913.53;4959241;28;20424;-73
2021/06/28 08:12:33;;;;;;;0.70;0.60;;;24.80;99.90;;;-143.50;100.00;58913.53;4994750;28;20489;-72
2021/06/28 08:15:01;;;;;;;0.70;0.60;;;25.00;99.90;;;-143.50;100.00;58913.53;4994008;28;20942;-72
2021/06/28 08:17:29;;;;;;;0.77;0.70;;;25.20;99.90;;;-143.50;100.00;58913.53;4993680;28;20423;-72
2021/06/28 08:19:56;;;;;;;0.70;0.60;;;25.50;99.90;;;-143.50;100.00;58913.53;4993963;28;20832;-73
2021/06/28 08:22:24;;;;;;;0.70;0.60;;;26.00;99.90;;;-143.50;100.00;58913.53;4993066;28;20900;-72
2021/06/28 08:24:52;;;;;;;0.70;0.60;;;26.00;99.90;;;-143.50;100.00;58913.53;4994161;28;20912;-73
2021/06/28 08:27:19;;;;;;;0.70;0.60;;;26.20;99.90;;;-143.50;100.00;58913.53;4993177;28;20403;-72
2021/06/28 08:29:49;;;;;;;0.70;0.50;;;26.50;99.90;;;-143.50;100.00;58913.53;4993791;28;20422;-71
2021/06/28 08:32:18;;;;;;;0.70;0.50;;;26.80;99.90;;;-143.50;100.00;58913.53;4992966;28;20454;-74
2021/06/28 08:34:46;;;;;;;0.80;0.80;;;26.90;99.90;;;-143.50;100.00;58913.53;4992224;28;20446;-74
2021/06/28 08:37:14;;;;;;;0.70;0.50;;;27.00;99.90;;;-143.50;100.00;58913.53;4993032;28;20430;-73
2021/06/28 08:39:41;;;;;;;0.70;0.50;;;27.20;99.90;;;-143.50;100.00;58913.53;4992317;28;20947;-72
2021/06/28 08:42:09;;;;;;;0.70;0.60;;;27.50;99.90;;;-143.50;100.00;58913.53;4993728;28;20794;-73
2021/06/28 08:44:37;;;;;;;0.70;0.60;;;27.70;99.90;;;-143.50;100.00;58913.53;4993134;28;20526;-73
2021/06/28 08:47:06;;;;;;;0.70;0.50;;;27.90;99.90;;;-143.50;100.00;58913.53;4993543;28;20421;-73
2021/06/28 08:49:34;;;;;;;0.70;0.50;;;28.20;99.90;;;-143.50;100.00;58913.53;4993479;28;20427;-73
2021/06/28 08:52:04;;;;;;;0.70;0.50;;;28.20;99.90;;;-143.50;100.00;58913.53;4992766;28;20573;-75
2021/06/28 08:54:32;;;;;;;0.70;0.50;;;28.50;99.90;;;-143.50;100.00;58913.53;5024891;28;21034;-74
2021/06/28 08:57:00;;;;;;;1.10;0.67;;;28.50;99.90;;;-143.50;100.00;58913.53;4993663;28;20538;-74
2021/06/28 08:59:28;;;;;;;0.70;0.60;;;28.80;99.90;;;-143.50;100.00;58913.53;4992329;28;20439;-73
2021/06/28 09:01:56;;;;;;;0.70;0.50;;;29.50;99.90;;;-143.50;100.00;58913.53;4992306;28;20859;-74
2021/06/28 09:04:25;;;;;;;0.70;0.50;;;29.70;99.90;;;-143.50;100.00;58913.53;4993006;28;20465;-74
2021/06/28 09:06:53;;;;;;;0.70;0.50;;;29.60;99.90;;;-143.50;100.00;58913.53;4993086;28;20458;-74
2021/06/28 09:09:22;;;;;;;0.70;0.50;;;29.30;99.90;;;-143.50;100.00;58913.53;4992809;28;20809;-74
2021/06/28 09:11:52;;;;;;;0.70;0.50;;;29.20;99.90;;;-143.50;100.00;58913.53;4993529;28;20486;-74
2021/06/28 09:14:24;;;;;;;0.70;0.50;;;29.00;99.90;;;-143.50;100.00;58913.53;4993343;28;20430;-73
2021/06/28 09:16:52;;;;;;;0.70;0.60;;;29.10;99.90;;;-143.50;100.00;58913.53;4991700;28;20435;-74
2021/06/28 09:19:22;;;;;;;0.70;0.53;;;29.10;98.20;;;-143.50;100.00;58913.53;4993274;28;20509;-74
2021/06/28 09:21:54;;;;;;;0.70;0.50;;;29.60;95.20;;;-143.50;100.00;58913.53;4992525;28;20924;-74
2021/06/28 09:24:27;;;;;;;0.70;0.50;;;29.90;92.20;;;-143.50;100.00;58913.53;4993173;28;20459;-74
2021/06/28 09:26:57;;;;;;;0.70;0.50;;;30.60;84.70;;;-143.50;100.00;58913.53;4993159;28;20408;-74
2021/06/28 09:29:35;;;;;;;3.33;0.93;;;30.80;82.90;;;-143.50;100.00;58913.53;4992668;28;20514;-74
2021/06/28 09:32:11;;;;;;;0.70;0.50;;;31.00;76.30;;;-143.50;100.00;58913.53;5006047;28;20470;-74
2021/06/28 09:34:42;;;;;;;0.70;0.50;;;30.80;75.80;;;-143.50;100.00;58913.53;4992008;28;20414;-74
2021/06/28 09:37:16;;;;;;;0.77;0.50;;;31.20;71.80;;;-143.50;100.00;58913.53;4993106;28;20415;-74
2021/06/28 09:39:45;;;;;;;0.80;0.60;;;31.70;67.20;;;-143.50;100.00;58913.53;4991943;28;20447;-74
2021/06/28 09:42:16;;;;;;;0.80;0.60;;;32.00;63.90;;;-143.50;100.00;58913.53;4992746;28;20951;-75
2021/06/28 09:44:53;;;;;;;0.80;0.50;;;32.00;63.60;;;-143.50;100.00;58913.53;4992154;28;20413;-75
2021/06/28 09:47:24;;;;;;;0.80;0.50;;;31.70;59.70;;;-143.50;100.00;58913.53;4992689;28;20876;-74
2021/06/28 09:50:04;;;;;;;0.80;0.63;;;31.30;61.40;;;-143.50;100.00;58913.53;4992553;28;20822;-73
2021/06/28 09:52:37;;;;;;;0.80;0.50;;;30.90;64.50;;;-143.50;100.00;58913.53;4996263;28;20954;-74
2021/06/28 09:55:14;;;;;;;0.80;0.50;;;30.80;63.20;;;-143.50;100.00;58913.53;4995310;28;20778;-74
2021/06/28 09:58:13;;;;;;;0.80;0.50;;;32.00;60.30;;;-143.50;100.00;58913.53;4994960;28;20445;-74
2021/06/28 10:00:43;;;;;;;0.80;0.50;;;32.40;50.90;;;-143.50;100.00;58913.53;4994506;28;20458;-75
2021/06/28 10:03:32;;;;;;;0.80;0.50;;;32.00;50.80;;;-143.50;100.00;58913.53;4996148;28;20467;-75
2021/06/28 10:06:52;;;;;;;0.80;0.50;;;30.90;54.40;;;-143.50;100.00;58913.53;4995920;28;20417;-75
2021/06/28 10:09:06;;;;;;;0.80;0.60;;;29.80;58.40;;;-143.50;100.00;58913.53;4988360;28;20475;-75
2021/06/28 10:11:41;;;;;;;0.80;0.60;;;29.20;61.80;;;-143.50;100.00;58913.53;4996197;28;20407;-74